createdAt,value
2019-02-22T00:01:40.356Z,91.90
2019-02-22T00:04:11.563Z,89.37
2019-02-22T00:06:42.763Z,84.03
2019-02-22T00:09:14.026Z,89.37
2019-02-22T00:11:46.342Z,76.90
2019-02-22T00:14:17.580Z,89.30
2019-02-22T00:16:48.775Z,94.83
2019-02-22T00:19:20.029Z,92.87
2019-02-22T00:21:51.290Z,83.67
2019-02-22T00:24:22.571Z,84.00
2019-02-22T00:26:53.757Z,82.67
2019-02-22T00:29:25.112Z,86.50
2019-02-22T00:31:56.415Z,95.13
2019-02-22T00:34:27.780Z,96.20
2019-02-22T00:36:59.119Z,87.33
2019-02-22T00:39:30.459Z,86.80
2019-02-22T00:42:01.717Z,91.40
2019-02-22T00:44:32.997Z,91.57
2019-02-22T00:47:04.188Z,94.07
2019-02-22T00:49:35.486Z,91.73
2019-02-22T00:52:06.723Z,85.97
2019-02-22T00:54:37.947Z,97.90
2019-02-22T00:57:09.163Z,98.83
2019-02-22T00:59:40.453Z,98.40
2019-02-22T01:02:11.705Z,110.10
2019-02-22T01:04:42.945Z,105.43
2019-02-22T01:07:14.305Z,103.33
2019-02-22T01:09:45.557Z,91.17
2019-02-22T01:12:16.747Z,108.23
2019-02-22T01:14:48.017Z,87.47
2019-02-22T01:17:19.271Z,97.17
2019-02-22T01:19:50.522Z,93.63
2019-02-22T01:22:21.870Z,81.37
2019-02-22T01:24:53.061Z,96.03
2019-02-22T01:27:24.310Z,92.20
2019-02-22T01:29:55.594Z,107.73
2019-02-22T01:32:26.872Z,85.03
2019-02-22T01:34:58.158Z,91.30
2019-02-22T01:37:29.360Z,86.03
2019-02-22T01:40:00.616Z,78.73
2019-02-22T01:42:31.909Z,79.33
2019-02-22T01:45:03.208Z,77.67
2019-02-22T01:47:34.487Z,94.73
2019-02-22T01:50:06.182Z,88.60
2019-02-22T01:52:37.478Z,83.87
2019-02-22T01:55:08.790Z,87.33
2019-02-22T01:57:40.005Z,81.50
2019-02-22T02:00:12.902Z,82.27
2019-02-22T02:02:44.173Z,90.47
2019-02-22T02:05:15.461Z,80.50
2019-02-22T02:07:46.708Z,75.60
2019-02-22T02:10:17.987Z,90.60
2019-02-22T02:12:49.229Z,100.30
2019-02-22T02:15:20.489Z,94.40
2019-02-22T02:17:51.762Z,103.47
2019-02-22T02:20:23.075Z,105.83
2019-02-22T02:22:54.332Z,108.33
2019-02-22T02:25:25.605Z,102.63
2019-02-22T02:27:56.811Z,98.70
2019-02-22T02:30:28.052Z,101.40
2019-02-22T02:32:59.270Z,98.73
2019-02-22T02:35:30.545Z,106.60
2019-02-22T02:38:01.867Z,101.87
2019-02-22T02:40:33.093Z,96.87
2019-02-22T02:43:04.290Z,110.00
2019-02-22T02:45:35.702Z,100.40
2019-02-22T02:48:07.024Z,104.70
2019-02-22T02:50:38.271Z,107.37
2019-02-22T02:53:09.526Z,100.87
2019-02-22T02:55:40.780Z,104.70
2019-02-22T02:58:12.145Z,104.73
2019-02-22T03:00:43.356Z,91.27
2019-02-22T03:03:14.647Z,98.73
2019-02-22T03:06:16.829Z,96.83
2019-02-22T03:08:48.096Z,110.00
2019-02-22T03:11:21.156Z,109.37
2019-02-22T03:13:52.290Z,112.50
2019-02-22T03:16:23.530Z,99.70
2019-02-22T03:18:54.790Z,110.40
2019-02-22T03:21:26.041Z,91.40
2019-02-22T03:23:57.317Z,104.47
2019-02-22T03:26:28.694Z,101.87
2019-02-22T03:29:01.366Z,111.70
2019-02-22T03:31:32.659Z,103.37
2019-02-22T03:34:03.930Z,109.43
2019-02-22T03:36:35.178Z,104.20
2019-02-22T03:39:07.765Z,107.23
2019-02-22T03:41:39.035Z,110.97
2019-02-22T03:44:10.319Z,107.53
2019-02-22T03:46:41.536Z,111.83
2019-02-22T03:49:12.899Z,110.10
2019-02-22T03:51:44.110Z,106.73
2019-02-22T03:54:15.501Z,114.83
2019-02-22T03:56:46.758Z,100.37
2019-02-22T03:59:18.089Z,108.17
2019-02-22T04:01:49.337Z,95.13
2019-02-22T04:04:20.693Z,96.97
2019-02-22T04:06:51.974Z,107.37
2019-02-22T04:09:23.271Z,104.07
2019-02-22T04:11:54.600Z,107.80
2019-02-22T04:14:25.893Z,87.67
2019-02-22T04:16:57.086Z,101.97
2019-02-22T04:19:28.673Z,104.07
2019-02-22T04:21:59.906Z,101.13
2019-02-22T04:24:31.170Z,100.33
2019-02-22T04:27:02.506Z,98.30
2019-02-22T04:29:33.796Z,96.50
2019-02-22T04:32:05.129Z,99.43
2019-02-22T04:34:36.448Z,103.47
2019-02-22T04:37:07.779Z,105.33
2019-02-22T04:39:39.044Z,103.83
2019-02-22T04:42:10.313Z,87.80
2019-02-22T04:44:41.655Z,78.90
2019-02-22T04:47:12.955Z,81.57
2019-02-22T04:49:44.230Z,91.20
2019-02-22T04:52:15.563Z,83.70
2019-02-22T04:54:46.770Z,97.30
2019-02-22T04:57:18.070Z,90.97
2019-02-22T04:59:49.304Z,98.10
2019-02-22T05:02:20.552Z,86.90
2019-02-22T05:04:51.933Z,101.33
2019-02-22T05:07:23.229Z,106.37
2019-02-22T05:09:54.707Z,99.40
2019-02-22T05:12:26.048Z,99.40
2019-02-22T05:15:16.350Z,107.03
2019-02-22T05:17:47.629Z,105.27
2019-02-22T05:20:18.893Z,110.83
2019-02-22T05:22:50.168Z,98.73
2019-02-22T05:25:21.435Z,109.67
2019-02-22T05:27:52.715Z,96.80
2019-02-22T05:30:23.988Z,96.90
2019-02-22T05:32:55.277Z,94.73
2019-02-22T05:35:26.577Z,93.03
2019-02-22T05:37:57.816Z,94.67
2019-02-22T05:40:29.143Z,95.87
2019-02-22T05:43:00.407Z,103.03
2019-02-22T05:45:31.686Z,91.33
2019-02-22T05:48:02.949Z,100.57
2019-02-22T05:50:34.220Z,99.03
2019-02-22T05:53:05.498Z,97.17
2019-02-22T05:55:36.799Z,97.60
2019-02-22T05:58:08.103Z,103.87
2019-02-22T06:00:39.377Z,106.23
2019-02-22T06:03:13.892Z,93.30
2019-02-22T06:05:45.244Z,94.47
2019-02-22T06:08:16.544Z,103.40
2019-02-22T06:10:47.770Z,96.90
2019-02-22T06:13:19.102Z,94.67
2019-02-22T06:15:50.372Z,93.13
2019-02-22T06:18:23.132Z,100.97
2019-02-22T06:20:54.509Z,111.50
2019-02-22T06:23:25.884Z,111.03
2019-02-22T06:25:57.135Z,100.60
2019-02-22T06:28:28.415Z,102.90
2019-02-22T06:30:59.693Z,99.93
2019-02-22T06:33:30.881Z,100.07
2019-02-22T06:36:02.158Z,104.23
2019-02-22T06:38:33.453Z,98.20
2019-02-22T06:41:04.713Z,106.77
2019-02-22T06:43:35.882Z,100.63
2019-02-22T06:46:07.148Z,89.23
2019-02-22T06:48:38.424Z,91.43
2019-02-22T06:51:09.759Z,92.33
2019-02-22T06:53:40.925Z,99.37
2019-02-22T06:56:12.187Z,90.07
2019-02-22T06:58:43.485Z,98.53
2019-02-22T07:01:14.755Z,92.43
2019-02-22T07:03:46.045Z,101.77
2019-02-22T07:06:17.251Z,94.57
2019-02-22T07:08:48.523Z,99.47
2019-02-22T07:11:26.704Z,96.13
2019-02-22T07:13:57.888Z,101.97
2019-02-22T07:16:29.199Z,87.23
2019-02-22T07:19:00.396Z,95.90
2019-02-22T07:21:43.747Z,87.73
2019-02-22T07:24:04.570Z,82.63
2019-02-22T07:26:35.809Z,90.40
2019-02-22T07:29:07.086Z,82.97
2019-02-22T07:31:38.351Z,87.80
2019-02-22T07:34:09.556Z,76.97
2019-02-22T07:36:40.737Z,85.13
2019-02-22T07:39:12.022Z,86.57
2019-02-22T07:41:43.281Z,82.90
2019-02-22T07:44:14.516Z,67.40
2019-02-22T07:46:45.804Z,70.40
2019-02-22T07:49:25.693Z,78.57
2019-02-22T07:51:56.938Z,86.63
2019-02-22T07:54:28.155Z,72.90
2019-02-22T07:56:59.420Z,68.77
2019-02-22T07:59:30.710Z,68.30
2019-02-22T08:02:01.982Z,63.30
2019-02-22T08:04:33.275Z,65.73
2019-02-22T08:07:04.551Z,71.93
2019-02-22T08:09:35.827Z,68.87
2019-02-22T08:12:07.135Z,68.90
2019-02-22T08:14:38.418Z,66.37
2019-02-22T08:17:09.724Z,63.63
2019-02-22T08:19:40.998Z,62.67
2019-02-22T08:22:12.315Z,63.57
2019-02-22T08:24:43.561Z,56.67
2019-02-22T08:27:14.774Z,57.67
2019-02-22T08:29:46.059Z,56.23
2019-02-22T08:32:17.341Z,53.00
2019-02-22T08:34:48.540Z,51.27
2019-02-22T08:37:19.746Z,49.73
2019-02-22T08:39:58.571Z,49.80
2019-02-22T08:42:23.915Z,46.00
2019-02-22T08:44:55.105Z,48.97
2019-02-22T08:47:26.431Z,48.63
2019-02-22T08:49:57.711Z,50.03
2019-02-22T08:52:28.970Z,44.97
2019-02-22T08:55:00.425Z,45.93
2019-02-22T08:57:31.630Z,41.17
2019-02-22T09:00:02.816Z,42.83
2019-02-22T09:02:34.135Z,46.50
2019-02-22T09:05:05.625Z,43.53
2019-02-22T09:07:36.979Z,42.23
2019-02-22T09:10:09.071Z,43.27
2019-02-22T09:12:40.350Z,46.10
2019-02-22T09:15:11.743Z,46.90
2019-02-22T09:17:43.035Z,45.60
2019-02-22T09:20:14.407Z,43.23
2019-02-22T09:22:45.877Z,47.23
2019-02-22T09:25:17.124Z,41.77
2019-02-22T09:27:50.909Z,40.60
2019-02-22T09:30:22.522Z,41.17
2019-02-22T09:32:53.758Z,49.33
2019-02-22T09:35:28.069Z,42.63
2019-02-22T09:37:59.375Z,39.33
2019-02-22T09:40:30.603Z,45.07
2019-02-22T09:43:01.906Z,38.30
2019-02-22T09:45:33.364Z,40.93
2019-02-22T09:48:04.674Z,34.50
2019-02-22T09:50:35.820Z,33.70
2019-02-22T09:53:07.101Z,35.43
2019-02-22T09:55:38.397Z,37.90
2019-02-22T09:58:09.674Z,35.07
2019-02-22T10:00:40.982Z,32.50
2019-02-22T10:03:12.249Z,34.50
2019-02-22T10:05:43.647Z,37.13
2019-02-22T10:08:14.974Z,32.00
2019-02-22T10:10:46.382Z,32.03
2019-02-22T10:13:17.725Z,29.30
2019-02-22T10:15:49.111Z,23.07
2019-02-22T10:18:20.403Z,25.03
2019-02-22T10:20:51.670Z,25.03
2019-02-22T10:23:22.945Z,27.70
2019-02-22T10:25:54.249Z,27.20
2019-02-22T10:28:25.540Z,26.27
2019-02-22T10:30:56.873Z,25.87
2019-02-22T10:33:36.182Z,28.60
2019-02-22T10:36:01.091Z,22.40
2019-02-22T10:38:52.696Z,25.23
2019-02-22T10:41:23.908Z,19.53
2019-02-22T10:43:55.083Z,19.20
2019-02-22T10:46:26.276Z,20.80
2019-02-22T10:49:01.681Z,16.70
2019-02-22T10:51:49.570Z,19.40
2019-02-22T10:54:42.580Z,19.60
2019-02-22T10:57:27.640Z,15.27
2019-02-22T11:00:05.775Z,13.17
2019-02-22T11:02:44.993Z,13.23
2019-02-22T11:05:22.897Z,16.90
2019-02-22T11:08:04.075Z,17.80
2019-02-22T11:10:39.769Z,11.93
2019-02-22T11:13:16.435Z,9.53
2019-02-22T11:15:50.286Z,13.30
2019-02-22T11:18:26.249Z,6.97
2019-02-22T11:20:57.528Z,13.90
2019-02-22T11:23:36.963Z,9.23
2019-02-22T11:26:11.228Z,9.70
2019-02-22T11:28:45.963Z,6.13
2019-02-22T11:31:23.272Z,7.27
2019-02-22T11:33:54.587Z,10.03
2019-02-22T11:36:25.813Z,9.37
2019-02-22T11:38:57.183Z,9.50
2019-02-22T11:41:28.749Z,9.30
2019-02-22T11:44:00.161Z,7.53
2019-02-22T11:46:31.799Z,9.43
2019-02-22T11:49:07.420Z,7.23
2019-02-22T11:51:38.660Z,6.93
2019-02-22T11:54:10.814Z,7.43
2019-02-22T11:56:42.300Z,7.87
2019-02-22T11:59:13.972Z,6.57
2019-02-22T12:01:45.898Z,6.40
2019-02-22T12:04:17.235Z,6.33
2019-02-22T12:06:48.583Z,5.93
2019-02-22T12:09:19.847Z,6.93
2019-02-22T12:11:51.191Z,11.17
2019-02-22T12:14:22.473Z,5.73
2019-02-22T12:16:53.847Z,6.27
2019-02-22T12:19:25.195Z,6.17
2019-02-22T12:21:56.811Z,6.73
2019-02-22T12:24:28.119Z,7.57
2019-02-22T12:26:59.474Z,8.07
2019-02-22T12:29:30.732Z,6.53
2019-02-22T12:32:02.114Z,6.50
2019-02-22T12:34:39.367Z,6.40
2019-02-22T12:37:10.708Z,4.73
2019-02-22T12:39:45.046Z,6.17
2019-02-22T12:42:16.346Z,7.43
2019-02-22T12:44:47.618Z,5.87
2019-02-22T12:47:18.855Z,4.70
2019-02-22T12:49:53.773Z,6.10
2019-02-22T12:52:25.072Z,6.90
2019-02-22T12:54:56.391Z,6.60
2019-02-22T12:57:27.648Z,6.70
2019-02-22T12:59:58.912Z,6.50
2019-02-22T13:02:30.259Z,7.43
2019-02-22T13:05:01.521Z,5.73
2019-02-22T13:07:32.821Z,5.90
2019-02-22T13:10:04.239Z,6.13
2019-02-22T13:12:35.463Z,6.20
2019-02-22T13:15:14.002Z,7.80
2019-02-22T13:17:41.325Z,8.27
2019-02-22T13:20:12.637Z,8.93
2019-02-22T13:22:43.866Z,12.47
2019-02-22T13:25:15.111Z,10.10
2019-02-22T13:27:46.375Z,9.43
2019-02-22T13:30:17.713Z,9.93
2019-02-22T13:32:48.976Z,10.20
2019-02-22T13:35:20.269Z,9.20
2019-02-22T13:37:54.394Z,7.53
2019-02-22T13:40:25.773Z,6.43
2019-02-22T13:42:57.113Z,8.30
2019-02-22T13:45:28.520Z,7.27
2019-02-22T13:48:00.010Z,6.57
2019-02-22T13:50:31.277Z,8.30
2019-02-22T13:53:02.578Z,9.10
2019-02-22T13:55:33.904Z,8.13
2019-02-22T13:58:05.169Z,10.70
2019-02-22T14:00:36.772Z,9.13
2019-02-22T14:03:08.412Z,8.20
2019-02-22T14:05:39.711Z,11.57
2019-02-22T14:08:10.992Z,10.50
2019-02-22T14:10:44.439Z,11.23
2019-02-22T14:13:18.370Z,15.30
2019-02-22T14:15:49.591Z,14.10
2019-02-22T14:18:22.230Z,13.37
2019-02-22T14:20:59.024Z,16.33
2019-02-22T14:23:30.253Z,12.77
2019-02-22T14:26:01.747Z,15.57
2019-02-22T14:28:33.239Z,10.50
2019-02-22T14:31:04.876Z,13.60
2019-02-22T14:33:37.093Z,15.87
2019-02-22T14:36:08.471Z,13.70
2019-02-22T14:38:43.914Z,17.20
2019-02-22T14:41:17.492Z,16.63
2019-02-22T14:43:49.950Z,20.20
2019-02-22T14:46:25.932Z,21.37
2019-02-22T14:48:58.125Z,23.40
2019-02-22T14:51:32.880Z,21.87
2019-02-22T14:54:04.119Z,21.50
2019-02-22T14:56:35.430Z,22.53
2019-02-22T14:59:06.695Z,23.60
2019-02-22T15:01:38.046Z,25.33
2019-02-22T15:04:09.351Z,25.90
2019-02-22T15:06:40.671Z,17.60
2019-02-22T15:09:11.877Z,21.73
2019-02-22T15:11:43.095Z,20.70
2019-02-22T15:14:14.428Z,24.23
2019-02-22T15:16:55.694Z,23.37
2019-02-22T15:19:26.990Z,25.70
2019-02-22T15:22:00.893Z,21.80
2019-02-22T15:24:33.083Z,21.87
2019-02-22T15:27:04.309Z,21.53
2019-02-22T15:29:35.627Z,18.93
2019-02-22T15:32:06.917Z,18.57
2019-02-22T15:34:38.101Z,18.10
2019-02-22T15:37:09.452Z,13.97
2019-02-22T15:39:40.714Z,18.60
2019-02-22T15:42:11.976Z,20.23
2019-02-22T15:44:43.422Z,17.80
2019-02-22T15:47:14.658Z,19.17
2019-02-22T15:49:48.557Z,20.60
2019-02-22T15:52:19.172Z,18.40
2019-02-22T15:54:50.437Z,19.43
2019-02-22T15:57:21.793Z,14.47
2019-02-22T15:59:53.152Z,15.90
2019-02-22T16:02:24.493Z,17.20
2019-02-22T16:05:06.331Z,15.90
2019-02-22T16:07:44.588Z,15.70
2019-02-22T16:10:10.900Z,17.77
2019-02-22T16:12:42.254Z,20.50
2019-02-22T16:15:14.800Z,21.27
2019-02-22T16:17:46.130Z,21.80
2019-02-22T16:20:17.424Z,17.10
2019-02-22T16:22:51.194Z,21.47
2019-02-22T16:25:21.787Z,23.73
2019-02-22T16:27:53.241Z,20.80
2019-02-22T16:30:26.762Z,22.30
2019-02-22T16:32:58.142Z,24.47
2019-02-22T16:35:29.416Z,24.17
2019-02-22T16:38:00.709Z,22.00
2019-02-22T16:40:32.014Z,25.30
2019-02-22T16:43:03.293Z,21.70
2019-02-22T16:45:34.553Z,18.30
2019-02-22T16:48:05.850Z,20.10
2019-02-22T16:50:37.913Z,29.13
2019-02-22T16:53:09.174Z,26.70
2019-02-22T16:55:40.483Z,27.10
2019-02-22T16:58:11.679Z,22.43
2019-02-22T17:00:42.918Z,22.83
2019-02-22T17:03:14.186Z,19.73
2019-02-22T17:05:45.475Z,27.03
2019-02-22T17:08:16.871Z,27.57
2019-02-22T17:10:48.228Z,28.83
2019-02-22T17:13:19.499Z,28.37
2019-02-22T17:15:50.795Z,28.57
2019-02-22T17:18:21.992Z,25.93
2019-02-22T17:20:53.215Z,31.37
2019-02-22T17:23:24.547Z,31.60
2019-02-22T17:25:55.998Z,30.63
2019-02-22T17:28:27.280Z,25.90
2019-02-22T17:30:58.623Z,29.60
2019-02-22T17:33:29.981Z,30.33
2019-02-22T17:36:01.324Z,42.20
2019-02-22T17:38:32.536Z,28.63
2019-02-22T17:41:03.829Z,31.70
2019-02-22T17:43:35.213Z,29.40
2019-02-22T17:46:06.519Z,32.73
2019-02-22T17:48:37.907Z,29.87
2019-02-22T17:51:09.258Z,35.03
2019-02-22T17:53:40.461Z,32.30
2019-02-22T17:56:11.721Z,32.97
2019-02-22T17:58:43.047Z,35.67
2019-02-22T18:01:15.551Z,30.60
2019-02-22T18:03:47.042Z,27.47
2019-02-22T18:06:18.642Z,31.43
2019-02-22T18:08:50.074Z,29.60
2019-02-22T18:11:21.446Z,39.47
2019-02-22T18:13:52.844Z,38.33
2019-02-22T18:16:24.103Z,35.90
2019-02-22T18:18:58.640Z,33.20
2019-02-22T18:21:29.968Z,36.57
2019-02-22T18:24:02.282Z,31.83
2019-02-22T18:26:34.533Z,29.50
2019-02-22T18:29:05.802Z,35.23
2019-02-22T18:31:37.313Z,37.60
2019-02-22T18:34:08.664Z,36.20
2019-02-22T18:36:39.913Z,35.53
2019-02-22T18:39:11.207Z,34.50
2019-02-22T18:41:42.522Z,38.90
2019-02-22T18:44:13.820Z,33.13
2019-02-22T18:46:45.156Z,34.53
2019-02-22T18:49:19.782Z,40.70
2019-02-22T18:51:51.239Z,36.77
2019-02-22T18:54:22.543Z,27.97
2019-02-22T18:56:53.967Z,36.73
2019-02-22T18:59:26.484Z,38.47
2019-02-22T19:01:57.814Z,29.83
2019-02-22T19:04:29.219Z,38.73
2019-02-22T19:07:00.487Z,45.43
2019-02-22T19:09:31.911Z,38.40
2019-02-22T19:12:03.359Z,37.97
2019-02-22T19:14:34.651Z,43.57
2019-02-22T19:17:06.389Z,40.33
2019-02-22T19:19:37.721Z,40.30
2019-02-22T19:22:09.148Z,34.37
2019-02-22T19:24:40.493Z,39.60
2019-02-22T19:27:11.801Z,32.93
2019-02-22T19:29:43.204Z,32.23
2019-02-22T19:32:14.566Z,42.33
2019-02-22T19:34:45.840Z,44.60
2019-02-22T19:37:19.131Z,40.70
2019-02-22T19:39:50.351Z,49.53
2019-02-22T19:42:23.429Z,38.77
2019-02-22T19:44:54.732Z,43.50
2019-02-22T19:47:26.184Z,37.43
2019-02-22T19:49:58.944Z,37.43
2019-02-22T19:52:30.319Z,42.00
2019-02-22T19:55:01.744Z,57.37
2019-02-22T19:57:33.205Z,41.90
2019-02-22T20:00:04.814Z,42.00
2019-02-22T20:02:36.139Z,46.23
2019-02-22T20:05:08.098Z,49.93
2019-02-22T20:07:39.422Z,50.23
2019-02-22T20:10:17.960Z,45.00
2019-02-22T20:12:46.045Z,54.93
2019-02-22T20:15:17.990Z,44.00
2019-02-22T20:17:54.533Z,42.60
2019-02-22T20:20:22.384Z,42.77
2019-02-22T20:22:53.680Z,48.53
2019-02-22T20:25:24.957Z,42.07
2019-02-22T20:27:56.273Z,44.30
2019-02-22T20:30:27.615Z,46.53
2019-02-22T20:32:59.149Z,59.63
2019-02-22T20:35:31.194Z,55.33
2019-02-22T20:38:03.138Z,59.57
2019-02-22T20:40:37.423Z,58.10
2019-02-22T20:43:11.657Z,53.00
2019-02-22T20:45:43.069Z,46.00
2019-02-22T20:48:14.571Z,54.50
2019-02-22T20:50:46.085Z,44.00
2019-02-22T20:53:17.446Z,61.03
2019-02-22T20:55:48.799Z,42.13
2019-02-22T20:58:20.168Z,46.43
2019-02-22T21:00:51.471Z,40.07
2019-02-22T21:03:22.913Z,40.87
2019-02-22T21:05:54.307Z,50.57
2019-02-22T21:08:25.595Z,42.30
2019-02-22T21:10:56.873Z,46.93
2019-02-22T21:13:28.337Z,39.30
2019-02-22T21:15:59.736Z,36.70
2019-02-22T21:18:31.005Z,32.43
2019-02-22T21:21:02.424Z,41.07
2019-02-22T21:23:33.884Z,32.27
2019-02-22T21:26:05.258Z,37.57
2019-02-22T21:28:36.612Z,26.93
2019-02-22T21:31:07.922Z,31.33
2019-02-22T21:33:39.383Z,31.80
2019-02-22T21:36:10.786Z,25.07
2019-02-22T21:38:42.017Z,27.13
2019-02-22T21:41:16.186Z,31.70
2019-02-22T21:43:46.425Z,30.03
2019-02-22T21:46:17.741Z,30.13
2019-02-22T21:48:49.037Z,27.60
2019-02-22T21:51:20.407Z,29.17
2019-02-22T21:53:51.789Z,25.13
2019-02-22T21:56:23.095Z,32.37
2019-02-22T22:01:23.450Z,31.70
2019-02-22T22:03:54.748Z,33.23
2019-02-22T22:06:26.133Z,30.20
2019-02-22T22:08:57.331Z,28.33
2019-02-22T22:11:28.668Z,28.60
2019-02-22T22:14:01.093Z,35.80
2019-02-22T22:16:32.607Z,34.33
2019-02-22T22:19:03.892Z,28.03
2019-02-22T22:21:35.244Z,30.50
2019-02-22T22:24:06.965Z,26.20
2019-02-22T22:26:38.411Z,29.60
2019-02-22T22:29:09.655Z,28.70
2019-02-22T22:31:41.182Z,26.60
2019-02-22T22:34:12.592Z,26.27
2019-02-22T22:36:43.942Z,30.33
2019-02-22T22:39:15.263Z,34.43
2019-02-22T22:41:46.600Z,29.40
2019-02-22T22:44:17.859Z,29.63
2019-02-22T22:46:49.072Z,33.40
2019-02-22T22:49:20.409Z,32.57
2019-02-22T22:51:54.033Z,31.33
2019-02-22T22:54:27.397Z,36.73
2019-02-22T22:56:58.543Z,30.37
2019-02-22T22:59:30.011Z,37.10
2019-02-22T23:02:01.471Z,31.30
2019-02-22T23:04:32.878Z,31.20
2019-02-22T23:07:04.124Z,35.73
2019-02-22T23:09:35.582Z,29.40
2019-02-22T23:12:07.391Z,34.83
2019-02-22T23:14:38.930Z,32.67
2019-02-22T23:17:10.275Z,33.50
2019-02-22T23:19:41.890Z,33.17
2019-02-22T23:22:13.271Z,40.50
2019-02-22T23:24:44.612Z,34.90
2019-02-22T23:27:16.145Z,32.87
2019-02-22T23:29:47.470Z,38.10
2019-02-22T23:32:18.774Z,37.23
2019-02-22T23:34:50.020Z,35.47
2019-02-22T23:37:21.411Z,46.07
2019-02-22T23:39:52.692Z,36.20
2019-02-22T23:42:24.031Z,38.67
2019-02-22T23:44:55.378Z,39.73
2019-02-22T23:47:26.787Z,36.00
2019-02-22T23:49:59.129Z,38.93
2019-02-22T23:52:30.514Z,38.73
2019-02-22T23:55:04.972Z,34.20
2019-02-22T23:57:36.393Z,32.60
